Terminal Aerodrome Forecast
Issued by NWS St Louis, MO

Home | Current Version | Previous Version | Graphics & Text | Print | Product List | Glossary Off
Versions: 1 2 3 4 5 6 7 8 9 10 11 12 13 14 15 16 17 18 19 20 21 22 23 24 25 26 27 28 29

000
FTUS43 KLSX 202134 AAB
TAFSTL
TAF AMD
KSTL 202134Z 2022/2124 32012KT 6SM -RA BR SCT006 BKN015
     FM210000 34009KT 3SM -RA BR OVC010
     FM210300 33011G19KT 3SM +SHRA OVC003
     FM210600 34011G18KT 3SM SHRA OVC008
     FM211000 34011G19KT P6SM VCSH OVC010
     FM211200 35010KT P6SM BKN015
     FM211600 36009KT P6SM BKN080=

USA.gov is the U.S. government's official web portal to all federal, state and local government web resources and services.